Sarah — WDF2432 — position and weather

sailwx.info

Track history (hours):
 
Tides and Currents Weather Stations Pressure Air Temp Water Temp Dewpoint Dewpoint Depression Visibility Wind Speed Wind Dir Waves Ship Positions

Sarah

Owner: Enterprise Marine Services, LLC, San Antonio, TX. More information available from US FCC via Universal Licensing System and Coast Guard Vessel Documentation Center.

Last reported at 2018-Jul-18 06:57 UTC. Time now 2018-Jul-18 10:21 UTC.
Position N 29°32' W 090°46'.

Length 30 m; draft 3.2 m.

Type: Towing. MMSI: 367003880.

Date/timePositionNaut miles runAvg speedWind from/ knotsBaromVisibWave heightAir tempDewpointWater temp
2018-Jul-18 06:57N 29°32' W 090°46'2 4.6
2018-Jul-18 06:30N 29°34' W 090°45'2 3.2
2018-Jul-18 05:59N 29°34' W 090°43'1 2.5
2018-Jul-18 05:30N 29°33' W 090°42'1 1.4
2018-Jul-18 05:00N 29°34' W 090°43'0 0.0
2018-Jul-18 04:30N 29°34' W 090°43'0 0.0
2018-Jul-18 04:00N 29°34' W 090°43'0 0.1
2018-Jul-18 03:30N 29°34' W 090°43'0 0.1
2018-Jul-18 03:00N 29°34' W 090°43'0 0.0
2018-Jul-18 02:30N 29°34' W 090°43'0 0.0
2018-Jul-18 02:00N 29°34' W 090°43'0 0.1
2018-Jul-18 01:30N 29°34' W 090°43'0 0.3
2018-Jul-18 01:00N 29°34' W 090°43'0 0.0
2018-Jul-18 00:23N 29°34' W 090°43'0 0.5
2018-Jul-18 00:00N 29°34' W 090°43'0 0.1
2018-Jul-17 23:30N 29°34' W 090°43'1 1.6
2018-Jul-17 23:00N 29°34' W 090°43'2 3.9
2018-Jul-17 22:30N 29°36' W 090°43'1 2.5
2018-Jul-17 22:00N 29°36' W 090°41'0 0.0
2018-Jul-17 21:30N 29°36' W 090°41'0 0.0
2018-Jul-17 21:00N 29°36' W 090°41'0 0.0
2018-Jul-17 20:30N 29°36' W 090°41'1 1.2
2018-Jul-17 19:58N 29°36' W 090°40'3 5.8
2018-Jul-17 19:29N 29°35' W 090°38'  
2018-Jul-10 06:18N 29°34' W 090°23'1 3.2
2018-Jul-10 06:00N 29°33' W 090°24'3 5.1
2018-Jul-10 05:29N 29°33' W 090°27'2 4.9
2018-Jul-10 05:00N 29°34' W 090°30'2 4.1
2018-Jul-10 04:30N 29°34' W 090°32'2 3.9
2018-Jul-10 04:00N 29°34' W 090°34'2 3.6
2018-Jul-10 03:30N 29°35' W 090°36'2 3.1
2018-Jul-10 03:00N 29°35' W 090°38'2 3.5
2018-Jul-10 02:30N 29°36' W 090°40'2 3.1
2018-Jul-10 02:00N 29°37' W 090°41'1 2.3
2018-Jul-10 01:30N 29°36' W 090°43'2 3.5
2018-Jul-10 01:00N 29°34' W 090°43'2 3.7
2018-Jul-10 00:30N 29°34' W 090°45'1 2.7
2018-Jul-10 00:00N 29°32' W 090°46'0 0.0
2018-Jul-09 23:30N 29°32' W 090°46'0 0.6
2018-Jul-09 23:00N 29°32' W 090°46'1 1.8
2018-Jul-09 22:30N 29°32' W 090°47'3 6.0
2018-Jul-09 22:00N 29°32' W 090°50'3 5.8
2018-Jul-09 21:30N 29°33' W 090°54'58 3.8
2018-Jul-09 06:08N 29°50' W 091°58'1 5.0
2018-Jul-09 06:00N 29°50' W 091°58'2 4.8
2018-Jul-09 05:30N 29°49' W 092°01'2 4.7
2018-Jul-09 05:00N 29°49' W 092°04'2 4.7
2018-Jul-09 04:30N 29°48' W 092°06'2 4.6
2018-Jul-09 04:00N 29°47' W 092°09'2 4.5
2018-Jul-09 03:30N 29°47' W 092°11'2 3.9
2018-Jul-09 02:59N 29°47' W 092°13'0 0.7
2018-Jul-09 02:30N 29°48' W 092°14'1 2.0
2018-Jul-09 02:00N 29°48' W 092°15'2 4.3
2018-Jul-09 01:30N 29°49' W 092°17'2 3.9
2018-Jul-09 01:00N 29°50' W 092°18'2 4.5
2018-Jul-09 00:30N 29°51' W 092°21'38 3.5
2018-Jul-08 13:41N 29°56' W 093°05'1 3.8
2018-Jul-08 13:26N 29°56' W 093°06'1 3.3
2018-Jul-08 13:00N 29°56' W 093°08'2 3.5
2018-Jul-08 12:30N 29°56' W 093°10'2 3.5
2018-Jul-08 12:00N 29°57' W 093°11'2 3.5
2018-Jul-08 11:30N 29°59' W 093°12'2 3.8
2018-Jul-08 11:00N 30°00' W 093°14'2 3.6
2018-Jul-08 10:30N 30°02' W 093°15'1 2.6
2018-Jul-08 10:00N 30°03' W 093°16'1 2.9
2018-Jul-08 09:29N 30°04' W 093°16'1 3.0
2018-Jul-08 09:00N 30°05' W 093°17'0 0.8
2018-Jul-08 08:30N 30°05' W 093°18'0 0.6
2018-Jul-08 08:00N 30°06' W 093°18'0 0.5
2018-Jul-08 07:30N 30°06' W 093°18'0 0.8
2018-Jul-08 07:00N 30°06' W 093°19'  
Track history (hours):
 
Tides and Currents Weather Stations Pressure Air Temp Water Temp Dewpoint Dewpoint Depression Visibility Wind Speed Wind Dir Waves Ship Positions

Sarah

Owner: Enterprise Marine Services, LLC, San Antonio, TX. More information available from US FCC via Universal Licensing System and Coast Guard Vessel Documentation Center.

Last reported at 2018-Jul-18 06:57 UTC. Time now 2018-Jul-18 10:21 UTC.
Position N 29°32' W 090°46'.

Length 30 m; draft 3.2 m.

Type: Towing. MMSI: 367003880.

Date/timePositionNaut miles runAvg speedWind from/ knotsBaromVisibWave heightAir tempDewpointWater temp
2018-Jul-18 06:57N 29°32' W 090°46'2 4.6
2018-Jul-18 06:30N 29°34' W 090°45'2 3.2
2018-Jul-18 05:59N 29°34' W 090°43'1 2.5
2018-Jul-18 05:30N 29°33' W 090°42'1 1.4
2018-Jul-18 05:00N 29°34' W 090°43'0 0.0
2018-Jul-18 04:30N 29°34' W 090°43'0 0.0
2018-Jul-18 04:00N 29°34' W 090°43'0 0.1
2018-Jul-18 03:30N 29°34' W 090°43'0 0.1
2018-Jul-18 03:00N 29°34' W 090°43'0 0.0
2018-Jul-18 02:30N 29°34' W 090°43'0 0.0
2018-Jul-18 02:00N 29°34' W 090°43'0 0.1
2018-Jul-18 01:30N 29°34' W 090°43'0 0.3
2018-Jul-18 01:00N 29°34' W 090°43'0 0.0
2018-Jul-18 00:23N 29°34' W 090°43'0 0.5
2018-Jul-18 00:00N 29°34' W 090°43'0 0.1
2018-Jul-17 23:30N 29°34' W 090°43'1 1.6
2018-Jul-17 23:00N 29°34' W 090°43'2 3.9
2018-Jul-17 22:30N 29°36' W 090°43'1 2.5
2018-Jul-17 22:00N 29°36' W 090°41'0 0.0
2018-Jul-17 21:30N 29°36' W 090°41'0 0.0
2018-Jul-17 21:00N 29°36' W 090°41'0 0.0
2018-Jul-17 20:30N 29°36' W 090°41'1 1.2
2018-Jul-17 19:58N 29°36' W 090°40'3 5.8
2018-Jul-17 19:29N 29°35' W 090°38'  
2018-Jul-10 06:18N 29°34' W 090°23'1 3.2
2018-Jul-10 06:00N 29°33' W 090°24'3 5.1
2018-Jul-10 05:29N 29°33' W 090°27'2 4.9
2018-Jul-10 05:00N 29°34' W 090°30'2 4.1
2018-Jul-10 04:30N 29°34' W 090°32'2 3.9
2018-Jul-10 04:00N 29°34' W 090°34'2 3.6
2018-Jul-10 03:30N 29°35' W 090°36'2 3.1
2018-Jul-10 03:00N 29°35' W 090°38'2 3.5
2018-Jul-10 02:30N 29°36' W 090°40'2 3.1
2018-Jul-10 02:00N 29°37' W 090°41'1 2.3
2018-Jul-10 01:30N 29°36' W 090°43'2 3.5
2018-Jul-10 01:00N 29°34' W 090°43'2 3.7
2018-Jul-10 00:30N 29°34' W 090°45'1 2.7
2018-Jul-10 00:00N 29°32' W 090°46'0 0.0
2018-Jul-09 23:30N 29°32' W 090°46'0 0.6
2018-Jul-09 23:00N 29°32' W 090°46'1 1.8
2018-Jul-09 22:30N 29°32' W 090°47'3 6.0
2018-Jul-09 22:00N 29°32' W 090°50'3 5.8
2018-Jul-09 21:30N 29°33' W 090°54'58 3.8
2018-Jul-09 06:08N 29°50' W 091°58'1 5.0
2018-Jul-09 06:00N 29°50' W 091°58'2 4.8
2018-Jul-09 05:30N 29°49' W 092°01'2 4.7
2018-Jul-09 05:00N 29°49' W 092°04'2 4.7
2018-Jul-09 04:30N 29°48' W 092°06'2 4.6
2018-Jul-09 04:00N 29°47' W 092°09'2 4.5
2018-Jul-09 03:30N 29°47' W 092°11'2 3.9
2018-Jul-09 02:59N 29°47' W 092°13'0 0.7
2018-Jul-09 02:30N 29°48' W 092°14'1 2.0
2018-Jul-09 02:00N 29°48' W 092°15'2 4.3
2018-Jul-09 01:30N 29°49' W 092°17'2 3.9
2018-Jul-09 01:00N 29°50' W 092°18'2 4.5
2018-Jul-09 00:30N 29°51' W 092°21'38 3.5
2018-Jul-08 13:41N 29°56' W 093°05'1 3.8
2018-Jul-08 13:26N 29°56' W 093°06'1 3.3
2018-Jul-08 13:00N 29°56' W 093°08'2 3.5
2018-Jul-08 12:30N 29°56' W 093°10'2 3.5
2018-Jul-08 12:00N 29°57' W 093°11'2 3.5
2018-Jul-08 11:30N 29°59' W 093°12'2 3.8
2018-Jul-08 11:00N 30°00' W 093°14'2 3.6
2018-Jul-08 10:30N 30°02' W 093°15'1 2.6
2018-Jul-08 10:00N 30°03' W 093°16'1 2.9
2018-Jul-08 09:29N 30°04' W 093°16'1 3.0
2018-Jul-08 09:00N 30°05' W 093°17'0 0.8
2018-Jul-08 08:30N 30°05' W 093°18'0 0.6
2018-Jul-08 08:00N 30°06' W 093°18'0 0.5
2018-Jul-08 07:30N 30°06' W 093°18'0 0.8
2018-Jul-08 07:00N 30°06' W 093°19'  

Dump ship's entire track history